罗盘
风向 的 风向 130° Haelogo Airport 12/30
风: 9 kt, 3 beaufort

9 kt

2 kt
改变
0 1.000 2.000 3.000 4.000 5.000
未检测到零云
METAR YHID 171100Z AUTO 13009KT 9999 // NCD 25/19 Q1014 RF00.0/000.0

METAR Haelogo Airport - HEO/HEO

Haelogo Airport是Haelogo,巴布亚新几内亚中的小机场。 该机场有一条跑道: 12/30. 该领域的国际民航组织标志是HEO 它的国际航空运输协会代码是HEO.

这份报告是针对2022年8月17日 21:00, 当地时间在Horn Island Airport进行的。

机场观察

风向为130°,速度为9 kt。

可见度为10 km 或者更多。

有未检测到零云。 没有观察到天花板。

温度和风寒是25 °C。 露点为19 °C,相对湿度为69%。 海平面上的气压为1014 hPa (QNH)。

白天

今天,太阳从06:19升起,在18:08降落。 这适用于Haelogo Airport,世界夏令时可能有所不同。 当地时间与世界标准时间之间的时差为+10 小时。 夏令时目前正在进行中。

公司介绍

我们没有关于这个机场的公司信息。

体会

到Vliegles.nl去找飞行课程,跳伞和其他飞行体验。 浏览页面,了解Haelogo Airport附近所有可用的活动。 你也可以使用搜索功能来寻找你所在地附近的特定飞行课程、跳伞或其他飞行体验。

跑道

Id 标题 侧风 逆风 侧风 %
12/30 120°-300° 2 kt 9 kt 17 %

逆风成分最大的方向会被突出显示,并用于横风计算。 这并不一定意味着这个方向在使用。

乌云

- NCD 未检测到零云

温度 & 天气

温度 25 °C
露点 19 °C
相对湿度 69%
Kp-index 2  

白天

日出
06:41
中午
12:34
日落
18:28

小工具

你想在你的网站上有一个关于Haelogo Airport的当前航空天气(METAR)的小部件吗?

</> 显示HTML代码

我们和第三方通过cookies跟踪您在我们网站上的上网行为。如果您继续,我们认为您同意我们的cookie政策。 了解更多